Etusivu
METAR-TAF:

METAR-TAF

Lentoasemat :

El Paso, Texas, Yhdysvallat

Leveyspiiri: 31-48-40N, Pituuspiiri: 106-22-33W, korkeus merenpinnasta: 1206 m

Tämänhetkinen sää

Tämä raportti tehtiin 1 tunti ja 6 minuuttia sitten, kello 11.51 UTC
Tuuli 3 kn pohjoisesta
Lämpötila 3°C
Kosteus 60%
Ilmanpaine 1022 hPa
Näkyvyys: 16.1 km
selkeää

METAR: KELP 281151Z 36003KT 10SM CLR 03/M04 A3018 RMK AO2 SLP194 T00331039 10067 20028 53004

Aika: 06:57 (12:57 UTC)

Sääennuste

Tämä raportti tehtiin 1 tunti ja 31 minuuttia sitten, kello 11.26 UTC
Ennuste voimassa 28. päivästä klo 12 UTC - 29. päivään klo 12 UTC
Tuuli 7 kn pohjoisen/luoteesta
Näkyvyys: 10 km
selkeää
From 28. päivästä klo 2000 UTC
Tuuli 8 kn lännestä
Näkyvyys: 10 km
selkeää

TAF: KELP 281126Z 2812/2912 34007KT P6SM SKC FM282000 27008KT P6SM SKC

Säähavainnot ja -ennusteet yli 4000 lentoasemalta (METAR- ja TAF-raportit).

Käytössä olevat sääasemat on merkitty karttaan keltaisilla ja punaisilla pisteillä.

Aseta hiiri pisteen päälle nähdäksesi sääaseman nimen.

Klikkaa sitten nähdäksesi säähavainnot ja -ennusteet.

Kartan vaihtaminen: klikkaa mustalla rastilla varustettuja vihreitä pisteitä, niin voit zoomata sisään; viivalla varustettua vihreää pistettä, niin voit zoomata ulos tai vihreitä nuolia, niin pääset viereisille kartoille.


METAR-TAF: